sensor_id;sensor_type;location;lat;lon;timestamp;P1;durP1;ratioP1;P2;durP2;ratioP2
49502;SDS011;35409;48.776;9.204;2023-03-01T00:01:29;33.75;;;17.13;;
49502;SDS011;35409;48.776;9.204;2023-03-01T00:03:56;32.42;;;17.40;;
49502;SDS011;35409;48.776;9.204;2023-03-01T00:06:23;32.13;;;17.42;;
49502;SDS011;35409;48.776;9.204;2023-03-01T00:08:49;32.90;;;18.02;;
49502;SDS011;35409;48.776;9.204;2023-03-01T00:11:19;33.50;;;17.60;;
49502;SDS011;35409;48.776;9.204;2023-03-01T00:13:49;30.30;;;16.80;;
49502;SDS011;35409;48.776;9.204;2023-03-01T00:16:19;30.55;;;16.70;;
49502;SDS011;35409;48.776;9.204;2023-03-01T00:18:49;28.35;;;16.10;;
49502;SDS011;35409;48.776;9.204;2023-03-01T00:21:15;30.65;;;17.02;;
49502;SDS011;35409;48.776;9.204;2023-03-01T00:23:41;33.65;;;17.67;;
49502;SDS011;35409;48.776;9.204;2023-03-01T00:26:09;32.40;;;17.58;;
49502;SDS011;35409;48.776;9.204;2023-03-01T00:28:37;31.88;;;17.40;;
49502;SDS011;35409;48.776;9.204;2023-03-01T00:31:07;31.80;;;15.80;;
49502;SDS011;35409;48.776;9.204;2023-03-01T00:33:34;31.98;;;15.77;;
49502;SDS011;35409;48.776;9.204;2023-03-01T00:35:59;27.13;;;16.05;;
49502;SDS011;35409;48.776;9.204;2023-03-01T00:38:26;33.10;;;17.25;;
49502;SDS011;35409;48.776;9.204;2023-03-01T00:40:51;31.30;;;16.92;;
49502;SDS011;35409;48.776;9.204;2023-03-01T00:43:17;30.83;;;16.85;;
49502;SDS011;35409;48.776;9.204;2023-03-01T00:45:44;31.83;;;16.35;;
49502;SDS011;35409;48.776;9.204;2023-03-01T00:48:10;30.55;;;16.25;;
49502;SDS011;35409;48.776;9.204;2023-03-01T00:50:35;35.28;;;16.45;;
49502;SDS011;35409;48.776;9.204;2023-03-01T00:53:01;30.48;;;16.38;;
49502;SDS011;35409;48.776;9.204;2023-03-01T00:55:27;32.38;;;16.00;;
49502;SDS011;35409;48.776;9.204;2023-03-01T00:57:52;34.15;;;16.98;;
49502;SDS011;35409;48.776;9.204;2023-03-01T01:00:19;29.65;;;16.15;;
49502;SDS011;35409;48.776;9.204;2023-03-01T01:02:44;29.52;;;16.77;;
49502;SDS011;35409;48.776;9.204;2023-03-01T01:05:11;31.48;;;16.35;;
49502;SDS011;35409;48.776;9.204;2023-03-01T01:07:39;29.75;;;16.13;;
49502;SDS011;35409;48.776;9.204;2023-03-01T01:10:05;30.60;;;15.23;;
49502;SDS011;35409;48.776;9.204;2023-03-01T01:12:31;29.13;;;16.58;;
49502;SDS011;35409;48.776;9.204;2023-03-01T01:15:00;30.42;;;15.45;;
49502;SDS011;35409;48.776;9.204;2023-03-01T01:17:26;32.65;;;16.20;;
49502;SDS011;35409;48.776;9.204;2023-03-01T01:19:51;29.88;;;15.65;;
49502;SDS011;35409;48.776;9.204;2023-03-01T01:22:17;33.47;;;17.88;;
49502;SDS011;35409;48.776;9.204;2023-03-01T01:24:42;31.02;;;17.60;;
49502;SDS011;35409;48.776;9.204;2023-03-01T01:27:08;28.30;;;16.08;;
49502;SDS011;35409;48.776;9.204;2023-03-01T01:29:34;31.65;;;16.73;;
49502;SDS011;35409;48.776;9.204;2023-03-01T01:31:59;30.50;;;16.88;;
49502;SDS011;35409;48.776;9.204;2023-03-01T01:34:25;34.22;;;18.52;;
49502;SDS011;35409;48.776;9.204;2023-03-01T01:36:51;32.63;;;16.75;;
49502;SDS011;35409;48.776;9.204;2023-03-01T01:39:21;32.97;;;16.90;;
49502;SDS011;35409;48.776;9.204;2023-03-01T01:41:47;35.22;;;18.20;;
49502;SDS011;35409;48.776;9.204;2023-03-01T01:47:05;37.28;;;19.75;;
49502;SDS011;35409;48.776;9.204;2023-03-01T01:49:40;28.55;;;17.08;;
49502;SDS011;35409;48.776;9.204;2023-03-01T01:52:14;37.95;;;17.88;;
49502;SDS011;35409;48.776;9.204;2023-03-01T01:54:55;38.03;;;19.08;;
49502;SDS011;35409;48.776;9.204;2023-03-01T01:57:30;31.77;;;17.13;;
49502;SDS011;35409;48.776;9.204;2023-03-01T02:00:00;32.97;;;17.58;;
49502;SDS011;35409;48.776;9.204;2023-03-01T02:05:42;37.45;;;17.92;;
49502;SDS011;35409;48.776;9.204;2023-03-01T02:08:03;28.85;;;16.23;;
49502;SDS011;35409;48.776;9.204;2023-03-01T02:10:30;32.40;;;17.60;;
49502;SDS011;35409;48.776;9.204;2023-03-01T02:13:00;30.08;;;16.05;;
49502;SDS011;35409;48.776;9.204;2023-03-01T02:15:28;31.10;;;17.38;;
49502;SDS011;35409;48.776;9.204;2023-03-01T02:17:57;30.10;;;17.08;;
49502;SDS011;35409;48.776;9.204;2023-03-01T02:20:29;33.22;;;17.83;;
49502;SDS011;35409;48.776;9.204;2023-03-01T02:23:10;32.85;;;17.23;;
49502;SDS011;35409;48.776;9.204;2023-03-01T02:28:25;30.80;;;16.48;;
49502;SDS011;35409;48.776;9.204;2023-03-01T02:30:53;30.17;;;17.25;;
49502;SDS011;35409;48.776;9.204;2023-03-01T02:33:38;29.10;;;16.70;;
49502;SDS011;35409;48.776;9.204;2023-03-01T02:36:06;32.85;;;18.40;;
49502;SDS011;35409;48.776;9.204;2023-03-01T02:38:39;30.50;;;16.63;;
49502;SDS011;35409;48.776;9.204;2023-03-01T02:41:06;28.63;;;16.42;;
49502;SDS011;35409;48.776;9.204;2023-03-01T02:43:33;33.33;;;17.10;;
49502;SDS011;35409;48.776;9.204;2023-03-01T02:46:04;28.17;;;15.93;;
49502;SDS011;35409;48.776;9.204;2023-03-01T02:48:42;29.92;;;16.80;;
49502;SDS011;35409;48.776;9.204;2023-03-01T02:53:45;28.48;;;16.52;;
49502;SDS011;35409;48.776;9.204;2023-03-01T02:56:14;33.03;;;18.20;;
49502;SDS011;35409;48.776;9.204;2023-03-01T02:58:40;35.00;;;17.00;;
49502;SDS011;35409;48.776;9.204;2023-03-01T03:01:13;28.73;;;16.98;;
49502;SDS011;35409;48.776;9.204;2023-03-01T03:03:40;33.88;;;17.17;;
49502;SDS011;35409;48.776;9.204;2023-03-01T03:06:06;28.95;;;16.00;;
49502;SDS011;35409;48.776;9.204;2023-03-01T03:08:32;29.83;;;16.67;;
49502;SDS011;35409;48.776;9.204;2023-03-01T03:10:58;32.38;;;16.83;;
49502;SDS011;35409;48.776;9.204;2023-03-01T03:13:23;32.88;;;16.83;;
49502;SDS011;35409;48.776;9.204;2023-03-01T03:15:53;30.10;;;17.27;;
49502;SDS011;35409;48.776;9.204;2023-03-01T03:18:22;30.95;;;17.10;;
49502;SDS011;35409;48.776;9.204;2023-03-01T03:20:51;31.02;;;17.70;;
49502;SDS011;35409;48.776;9.204;2023-03-01T03:23:18;32.22;;;17.45;;
49502;SDS011;35409;48.776;9.204;2023-03-01T03:25:48;30.05;;;16.58;;
49502;SDS011;35409;48.776;9.204;2023-03-01T03:28:15;32.10;;;17.33;;
49502;SDS011;35409;48.776;9.204;2023-03-01T03:30:41;28.55;;;16.00;;
49502;SDS011;35409;48.776;9.204;2023-03-01T03:33:08;31.48;;;17.40;;
49502;SDS011;35409;48.776;9.204;2023-03-01T03:35:41;34.63;;;18.50;;
49502;SDS011;35409;48.776;9.204;2023-03-01T03:38:13;28.77;;;16.35;;
49502;SDS011;35409;48.776;9.204;2023-03-01T03:40:45;30.90;;;17.73;;
49502;SDS011;35409;48.776;9.204;2023-03-01T03:43:13;31.38;;;17.38;;
49502;SDS011;35409;48.776;9.204;2023-03-01T03:45:44;29.75;;;17.05;;
49502;SDS011;35409;48.776;9.204;2023-03-01T03:48:10;32.13;;;17.35;;
49502;SDS011;35409;48.776;9.204;2023-03-01T03:50:37;30.58;;;15.73;;
49502;SDS011;35409;48.776;9.204;2023-03-01T03:53:04;32.80;;;17.77;;
49502;SDS011;35409;48.776;9.204;2023-03-01T03:55:32;33.50;;;17.65;;
49502;SDS011;35409;48.776;9.204;2023-03-01T03:57:59;30.17;;;17.15;;
49502;SDS011;35409;48.776;9.204;2023-03-01T04:00:31;31.98;;;16.55;;
49502;SDS011;35409;48.776;9.204;2023-03-01T04:02:58;30.58;;;17.17;;
49502;SDS011;35409;48.776;9.204;2023-03-01T04:05:24;30.15;;;16.33;;
49502;SDS011;35409;48.776;9.204;2023-03-01T04:07:50;29.83;;;16.38;;
49502;SDS011;35409;48.776;9.204;2023-03-01T04:10:26;29.67;;;16.83;;
49502;SDS011;35409;48.776;9.204;2023-03-01T04:12:52;29.00;;;16.48;;
49502;SDS011;35409;48.776;9.204;2023-03-01T04:15:18;33.58;;;18.10;;
49502;SDS011;35409;48.776;9.204;2023-03-01T04:17:44;29.92;;;18.27;;
49502;SDS011;35409;48.776;9.204;2023-03-01T04:20:15;29.52;;;17.98;;
49502;SDS011;35409;48.776;9.204;2023-03-01T04:22:43;30.13;;;17.85;;
49502;SDS011;35409;48.776;9.204;2023-03-01T04:25:12;32.53;;;17.38;;
49502;SDS011;35409;48.776;9.204;2023-03-01T04:27:39;30.58;;;17.63;;
49502;SDS011;35409;48.776;9.204;2023-03-01T04:30:05;29.80;;;18.02;;
49502;SDS011;35409;48.776;9.204;2023-03-01T04:32:31;30.05;;;17.23;;
49502;SDS011;35409;48.776;9.204;2023-03-01T04:34:57;32.67;;;18.10;;
49502;SDS011;35409;48.776;9.204;2023-03-01T04:37:23;28.85;;;17.77;;
49502;SDS011;35409;48.776;9.204;2023-03-01T04:39:49;29.50;;;16.92;;
49502;SDS011;35409;48.776;9.204;2023-03-01T04:42:15;33.67;;;17.58;;
49502;SDS011;35409;48.776;9.204;2023-03-01T04:44:41;31.83;;;18.15;;
49502;SDS011;35409;48.776;9.204;2023-03-01T04:47:07;33.03;;;17.88;;
49502;SDS011;35409;48.776;9.204;2023-03-01T04:49:33;29.08;;;17.67;;
49502;SDS011;35409;48.776;9.204;2023-03-01T04:51:59;35.30;;;18.52;;
49502;SDS011;35409;48.776;9.204;2023-03-01T04:54:26;35.95;;;18.63;;
49502;SDS011;35409;48.776;9.204;2023-03-01T04:56:56;32.35;;;18.27;;
49502;SDS011;35409;48.776;9.204;2023-03-01T04:59:22;32.13;;;18.58;;
49502;SDS011;35409;48.776;9.204;2023-03-01T05:01:48;32.90;;;18.10;;
49502;SDS011;35409;48.776;9.204;2023-03-01T05:04:14;34.00;;;17.75;;
49502;SDS011;35409;48.776;9.204;2023-03-01T05:06:40;31.20;;;17.38;;
49502;SDS011;35409;48.776;9.204;2023-03-01T05:09:06;34.08;;;18.52;;
49502;SDS011;35409;48.776;9.204;2023-03-01T05:11:31;30.90;;;17.60;;
49502;SDS011;35409;48.776;9.204;2023-03-01T05:14:04;31.90;;;17.77;;
49502;SDS011;35409;48.776;9.204;2023-03-01T05:16:30;30.73;;;18.95;;
49502;SDS011;35409;48.776;9.204;2023-03-01T05:18:57;35.45;;;18.67;;
49502;SDS011;35409;48.776;9.204;2023-03-01T05:21:23;36.38;;;18.50;;
49502;SDS011;35409;48.776;9.204;2023-03-01T05:23:50;32.88;;;18.27;;
49502;SDS011;35409;48.776;9.204;2023-03-01T05:26:16;37.67;;;20.23;;
49502;SDS011;35409;48.776;9.204;2023-03-01T05:28:43;32.55;;;19.23;;
49502;SDS011;35409;48.776;9.204;2023-03-01T05:31:09;36.85;;;19.45;;
49502;SDS011;35409;48.776;9.204;2023-03-01T05:33:38;32.40;;;17.83;;
49502;SDS011;35409;48.776;9.204;2023-03-01T05:38:32;30.52;;;16.92;;
49502;SDS011;35409;48.776;9.204;2023-03-01T05:40:57;37.45;;;18.52;;
49502;SDS011;35409;48.776;9.204;2023-03-01T05:43:23;36.30;;;19.33;;
49502;SDS011;35409;48.776;9.204;2023-03-01T05:45:49;30.50;;;17.83;;
49502;SDS011;35409;48.776;9.204;2023-03-01T05:48:14;31.83;;;18.50;;
49502;SDS011;35409;48.776;9.204;2023-03-01T05:50:41;32.65;;;19.33;;
49502;SDS011;35409;48.776;9.204;2023-03-01T05:53:12;33.90;;;18.10;;
49502;SDS011;35409;48.776;9.204;2023-03-01T05:55:39;35.17;;;18.70;;
49502;SDS011;35409;48.776;9.204;2023-03-01T05:58:10;34.75;;;18.85;;
49502;SDS011;35409;48.776;9.204;2023-03-01T06:00:39;35.45;;;18.70;;
49502;SDS011;35409;48.776;9.204;2023-03-01T06:03:05;32.83;;;18.38;;
49502;SDS011;35409;48.776;9.204;2023-03-01T06:05:31;33.70;;;19.13;;
49502;SDS011;35409;48.776;9.204;2023-03-01T06:07:59;39.55;;;18.48;;
49502;SDS011;35409;48.776;9.204;2023-03-01T06:10:26;32.65;;;18.45;;
49502;SDS011;35409;48.776;9.204;2023-03-01T06:12:52;34.13;;;19.35;;
49502;SDS011;35409;48.776;9.204;2023-03-01T06:15:18;32.80;;;19.00;;
49502;SDS011;35409;48.776;9.204;2023-03-01T06:17:44;35.33;;;19.33;;
49502;SDS011;35409;48.776;9.204;2023-03-01T06:22:44;36.85;;;20.35;;
49502;SDS011;35409;48.776;9.204;2023-03-01T06:25:11;30.45;;;18.85;;
49502;SDS011;35409;48.776;9.204;2023-03-01T06:27:38;34.25;;;18.85;;
49502;SDS011;35409;48.776;9.204;2023-03-01T06:30:04;31.02;;;18.10;;
49502;SDS011;35409;48.776;9.204;2023-03-01T06:32:31;34.40;;;19.40;;
49502;SDS011;35409;48.776;9.204;2023-03-01T06:34:57;32.75;;;17.95;;
49502;SDS011;35409;48.776;9.204;2023-03-01T06:37:23;31.27;;;18.20;;
49502;SDS011;35409;48.776;9.204;2023-03-01T06:39:49;38.17;;;20.33;;
49502;SDS011;35409;48.776;9.204;2023-03-01T06:42:15;39.00;;;19.15;;
49502;SDS011;35409;48.776;9.204;2023-03-01T06:44:41;34.42;;;19.50;;
49502;SDS011;35409;48.776;9.204;2023-03-01T06:47:07;33.55;;;18.02;;
49502;SDS011;35409;48.776;9.204;2023-03-01T06:49:32;31.42;;;18.73;;
49502;SDS011;35409;48.776;9.204;2023-03-01T06:51:58;34.22;;;18.92;;
49502;SDS011;35409;48.776;9.204;2023-03-01T06:54:23;40.97;;;20.25;;
49502;SDS011;35409;48.776;9.204;2023-03-01T06:56:49;33.20;;;19.13;;
49502;SDS011;35409;48.776;9.204;2023-03-01T06:59:16;37.75;;;20.38;;
49502;SDS011;35409;48.776;9.204;2023-03-01T07:01:42;34.50;;;19.10;;
49502;SDS011;35409;48.776;9.204;2023-03-01T07:04:08;33.50;;;18.77;;
49502;SDS011;35409;48.776;9.204;2023-03-01T07:06:34;33.08;;;18.50;;
49502;SDS011;35409;48.776;9.204;2023-03-01T07:09:00;37.45;;;19.02;;
49502;SDS011;35409;48.776;9.204;2023-03-01T07:11:25;31.48;;;18.38;;
49502;SDS011;35409;48.776;9.204;2023-03-01T07:13:51;36.65;;;20.30;;
49502;SDS011;35409;48.776;9.204;2023-03-01T07:16:17;38.70;;;20.58;;
49502;SDS011;35409;48.776;9.204;2023-03-01T07:18:42;35.50;;;19.95;;
49502;SDS011;35409;48.776;9.204;2023-03-01T07:21:09;36.72;;;19.90;;
49502;SDS011;35409;48.776;9.204;2023-03-01T07:23:37;36.25;;;19.35;;
49502;SDS011;35409;48.776;9.204;2023-03-01T07:26:03;37.50;;;20.42;;
49502;SDS011;35409;48.776;9.204;2023-03-01T07:28:28;34.13;;;19.20;;
49502;SDS011;35409;48.776;9.204;2023-03-01T07:30:55;38.60;;;20.23;;
49502;SDS011;35409;48.776;9.204;2023-03-01T07:33:26;35.75;;;19.50;;
49502;SDS011;35409;48.776;9.204;2023-03-01T07:35:59;35.28;;;19.73;;
49502;SDS011;35409;48.776;9.204;2023-03-01T07:38:26;34.70;;;20.00;;
49502;SDS011;35409;48.776;9.204;2023-03-01T07:40:52;34.40;;;19.52;;
49502;SDS011;35409;48.776;9.204;2023-03-01T07:43:18;37.80;;;20.08;;
49502;SDS011;35409;48.776;9.204;2023-03-01T07:45:45;40.85;;;20.52;;
49502;SDS011;35409;48.776;9.204;2023-03-01T07:48:11;34.72;;;19.27;;
49502;SDS011;35409;48.776;9.204;2023-03-01T07:50:36;32.90;;;20.13;;
49502;SDS011;35409;48.776;9.204;2023-03-01T07:53:02;41.08;;;20.63;;
49502;SDS011;35409;48.776;9.204;2023-03-01T07:55:27;34.85;;;19.35;;
49502;SDS011;35409;48.776;9.204;2023-03-01T07:57:53;41.28;;;20.58;;
49502;SDS011;35409;48.776;9.204;2023-03-01T08:00:19;37.17;;;20.10;;
49502;SDS011;35409;48.776;9.204;2023-03-01T08:02:44;43.20;;;21.50;;
49502;SDS011;35409;48.776;9.204;2023-03-01T08:05:10;41.92;;;19.83;;
49502;SDS011;35409;48.776;9.204;2023-03-01T08:07:36;38.83;;;20.75;;
49502;SDS011;35409;48.776;9.204;2023-03-01T08:10:02;41.33;;;20.35;;
49502;SDS011;35409;48.776;9.204;2023-03-01T08:12:28;38.75;;;21.80;;
49502;SDS011;35409;48.776;9.204;2023-03-01T08:14:54;38.08;;;20.50;;
49502;SDS011;35409;48.776;9.204;2023-03-01T08:17:19;38.08;;;21.15;;
49502;SDS011;35409;48.776;9.204;2023-03-01T08:19:45;39.22;;;21.58;;
49502;SDS011;35409;48.776;9.204;2023-03-01T08:22:11;34.80;;;20.35;;
49502;SDS011;35409;48.776;9.204;2023-03-01T08:24:36;36.55;;;20.45;;
49502;SDS011;35409;48.776;9.204;2023-03-01T08:27:06;34.58;;;19.15;;
49502;SDS011;35409;48.776;9.204;2023-03-01T08:29:38;36.47;;;19.83;;
49502;SDS011;35409;48.776;9.204;2023-03-01T08:32:07;36.97;;;21.47;;
49502;SDS011;35409;48.776;9.204;2023-03-01T08:34:38;36.53;;;19.88;;
49502;SDS011;35409;48.776;9.204;2023-03-01T08:37:18;37.30;;;20.23;;
49502;SDS011;35409;48.776;9.204;2023-03-01T08:39:46;38.78;;;20.92;;
49502;SDS011;35409;48.776;9.204;2023-03-01T08:42:14;38.33;;;21.70;;
49502;SDS011;35409;48.776;9.204;2023-03-01T08:44:42;37.00;;;21.42;;
49502;SDS011;35409;48.776;9.204;2023-03-01T08:47:08;36.45;;;20.85;;
49502;SDS011;35409;48.776;9.204;2023-03-01T08:49:34;35.90;;;20.58;;
49502;SDS011;35409;48.776;9.204;2023-03-01T08:52:01;46.10;;;21.50;;
49502;SDS011;35409;48.776;9.204;2023-03-01T08:54:27;39.22;;;21.70;;
49502;SDS011;35409;48.776;9.204;2023-03-01T08:56:53;34.97;;;19.75;;
49502;SDS011;35409;48.776;9.204;2023-03-01T08:59:19;37.25;;;20.10;;
49502;SDS011;35409;48.776;9.204;2023-03-01T09:01:45;34.50;;;20.13;;
49502;SDS011;35409;48.776;9.204;2023-03-01T09:04:12;36.53;;;20.23;;
49502;SDS011;35409;48.776;9.204;2023-03-01T09:06:38;37.03;;;20.73;;
49502;SDS011;35409;48.776;9.204;2023-03-01T09:09:04;39.70;;;21.27;;
49502;SDS011;35409;48.776;9.204;2023-03-01T09:11:30;36.42;;;20.30;;
49502;SDS011;35409;48.776;9.204;2023-03-01T09:13:56;36.78;;;20.10;;
49502;SDS011;35409;48.776;9.204;2023-03-01T09:16:22;40.05;;;21.63;;
49502;SDS011;35409;48.776;9.204;2023-03-01T09:18:49;35.97;;;21.55;;
49502;SDS011;35409;48.776;9.204;2023-03-01T09:21:16;36.13;;;19.80;;
49502;SDS011;35409;48.776;9.204;2023-03-01T09:23:43;38.00;;;20.35;;
49502;SDS011;35409;48.776;9.204;2023-03-01T09:26:10;35.15;;;20.50;;
49502;SDS011;35409;48.776;9.204;2023-03-01T09:28:37;35.95;;;20.23;;
49502;SDS011;35409;48.776;9.204;2023-03-01T09:31:04;39.45;;;20.92;;
49502;SDS011;35409;48.776;9.204;2023-03-01T09:33:30;40.50;;;22.05;;
49502;SDS011;35409;48.776;9.204;2023-03-01T09:36:00;37.70;;;20.52;;
49502;SDS011;35409;48.776;9.204;2023-03-01T09:38:27;37.38;;;20.92;;
49502;SDS011;35409;48.776;9.204;2023-03-01T09:40:53;40.92;;;21.40;;
49502;SDS011;35409;48.776;9.204;2023-03-01T09:45:52;34.63;;;20.42;;
49502;SDS011;35409;48.776;9.204;2023-03-01T09:48:20;32.55;;;20.23;;
49502;SDS011;35409;48.776;9.204;2023-03-01T09:50:48;35.75;;;19.15;;
49502;SDS011;35409;48.776;9.204;2023-03-01T09:56:00;34.00;;;18.75;;
49502;SDS011;35409;48.776;9.204;2023-03-01T10:01:26;33.28;;;18.60;;
49502;SDS011;35409;48.776;9.204;2023-03-01T10:06:38;40.17;;;20.15;;
49502;SDS011;35409;48.776;9.204;2023-03-01T10:09:06;39.90;;;18.88;;
49502;SDS011;35409;48.776;9.204;2023-03-01T10:11:36;31.13;;;19.73;;
49502;SDS011;35409;48.776;9.204;2023-03-01T10:14:03;36.05;;;19.75;;
49502;SDS011;35409;48.776;9.204;2023-03-01T10:19:09;34.50;;;19.70;;
49502;SDS011;35409;48.776;9.204;2023-03-01T10:21:38;33.10;;;19.35;;
49502;SDS011;35409;48.776;9.204;2023-03-01T10:24:13;30.42;;;19.52;;
49502;SDS011;35409;48.776;9.204;2023-03-01T10:26:48;35.17;;;19.35;;
49502;SDS011;35409;48.776;9.204;2023-03-01T10:29:30;34.40;;;18.98;;
49502;SDS011;35409;48.776;9.204;2023-03-01T10:32:02;31.25;;;18.67;;
49502;SDS011;35409;48.776;9.204;2023-03-01T10:34:31;32.40;;;18.33;;
49502;SDS011;35409;48.776;9.204;2023-03-01T10:37:13;30.58;;;19.10;;
49502;SDS011;35409;48.776;9.204;2023-03-01T10:47:21;31.42;;;18.15;;
49502;SDS011;35409;48.776;9.204;2023-03-01T10:49:53;38.35;;;18.08;;
49502;SDS011;35409;48.776;9.204;2023-03-01T10:52:21;31.92;;;18.15;;
49502;SDS011;35409;48.776;9.204;2023-03-01T10:54:53;35.97;;;18.05;;
49502;SDS011;35409;48.776;9.204;2023-03-01T10:57:42;32.78;;;18.13;;
49502;SDS011;35409;48.776;9.204;2023-03-01T11:02:46;33.58;;;18.38;;
49502;SDS011;35409;48.776;9.204;2023-03-01T11:07:47;28.02;;;16.75;;
49502;SDS011;35409;48.776;9.204;2023-03-01T11:10:18;30.48;;;17.95;;
49502;SDS011;35409;48.776;9.204;2023-03-01T11:15:19;30.02;;;18.38;;
49502;SDS011;35409;48.776;9.204;2023-03-01T11:17:47;28.77;;;17.58;;
49502;SDS011;35409;48.776;9.204;2023-03-01T11:22:46;30.17;;;18.08;;
49502;SDS011;35409;48.776;9.204;2023-03-01T11:25:19;24.48;;;16.83;;
49502;SDS011;35409;48.776;9.204;2023-03-01T11:27:49;28.80;;;17.73;;
49502;SDS011;35409;48.776;9.204;2023-03-01T11:30:20;27.52;;;17.38;;
49502;SDS011;35409;48.776;9.204;2023-03-01T11:35:34;28.55;;;17.02;;
49502;SDS011;35409;48.776;9.204;2023-03-01T11:40:44;32.05;;;19.17;;
49502;SDS011;35409;48.776;9.204;2023-03-01T11:43:40;27.42;;;17.05;;
49502;SDS011;35409;48.776;9.204;2023-03-01T11:56:52;29.92;;;18.23;;
49502;SDS011;35409;48.776;9.204;2023-03-01T12:02:07;28.52;;;17.77;;
49502;SDS011;35409;48.776;9.204;2023-03-01T12:04:49;27.27;;;16.27;;
49502;SDS011;35409;48.776;9.204;2023-03-01T12:10:16;31.83;;;18.27;;
49502;SDS011;35409;48.776;9.204;2023-03-01T12:12:49;27.37;;;16.90;;
49502;SDS011;35409;48.776;9.204;2023-03-01T12:35:03;23.05;;;15.27;;
49502;SDS011;35409;48.776;9.204;2023-03-01T12:40:53;26.90;;;16.20;;
49502;SDS011;35409;48.776;9.204;2023-03-01T12:43:47;22.67;;;16.10;;
49502;SDS011;35409;48.776;9.204;2023-03-01T12:49:10;22.13;;;14.70;;
49502;SDS011;35409;48.776;9.204;2023-03-01T12:51:38;22.83;;;15.38;;
49502;SDS011;35409;48.776;9.204;2023-03-01T12:54:15;22.60;;;15.18;;
49502;SDS011;35409;48.776;9.204;2023-03-01T12:56:41;23.60;;;15.27;;
49502;SDS011;35409;48.776;9.204;2023-03-01T12:59:23;25.63;;;14.25;;
49502;SDS011;35409;48.776;9.204;2023-03-01T13:02:04;21.38;;;15.02;;
49502;SDS011;35409;48.776;9.204;2023-03-01T13:04:40;22.42;;;15.35;;
49502;SDS011;35409;48.776;9.204;2023-03-01T13:07:16;22.60;;;15.60;;
49502;SDS011;35409;48.776;9.204;2023-03-01T13:09:50;21.67;;;15.23;;
49502;SDS011;35409;48.776;9.204;2023-03-01T13:15:02;20.33;;;14.57;;
49502;SDS011;35409;48.776;9.204;2023-03-01T13:17:29;21.40;;;14.02;;
49502;SDS011;35409;48.776;9.204;2023-03-01T13:19:56;24.88;;;14.98;;
49502;SDS011;35409;48.776;9.204;2023-03-01T13:22:30;21.40;;;14.07;;
49502;SDS011;35409;48.776;9.204;2023-03-01T13:25:01;23.13;;;13.50;;
49502;SDS011;35409;48.776;9.204;2023-03-01T13:27:27;19.70;;;13.98;;
49502;SDS011;35409;48.776;9.204;2023-03-01T13:29:55;18.52;;;13.05;;
49502;SDS011;35409;48.776;9.204;2023-03-01T13:32:25;18.98;;;13.73;;
49502;SDS011;35409;48.776;9.204;2023-03-01T13:35:03;18.67;;;12.48;;
49502;SDS011;35409;48.776;9.204;2023-03-01T13:37:31;24.55;;;15.32;;
49502;SDS011;35409;48.776;9.204;2023-03-01T13:39:58;21.27;;;15.90;;
49502;SDS011;35409;48.776;9.204;2023-03-01T13:42:31;21.88;;;15.43;;
49502;SDS011;35409;48.776;9.204;2023-03-01T13:44:57;27.20;;;15.73;;
49502;SDS011;35409;48.776;9.204;2023-03-01T13:47:23;28.08;;;17.10;;
49502;SDS011;35409;48.776;9.204;2023-03-01T13:50:00;24.17;;;17.00;;
49502;SDS011;35409;48.776;9.204;2023-03-01T13:52:34;24.40;;;16.23;;
49502;SDS011;35409;48.776;9.204;2023-03-01T13:55:02;25.77;;;16.73;;
49502;SDS011;35409;48.776;9.204;2023-03-01T13:57:35;28.85;;;16.25;;
49502;SDS011;35409;48.776;9.204;2023-03-01T14:00:04;25.45;;;17.73;;
49502;SDS011;35409;48.776;9.204;2023-03-01T14:02:31;27.88;;;17.27;;
49502;SDS011;35409;48.776;9.204;2023-03-01T14:04:59;29.10;;;17.33;;
49502;SDS011;35409;48.776;9.204;2023-03-01T14:07:26;27.60;;;17.92;;
49502;SDS011;35409;48.776;9.204;2023-03-01T14:09:56;26.35;;;16.85;;
49502;SDS011;35409;48.776;9.204;2023-03-01T14:20:19;29.65;;;19.08;;
49502;SDS011;35409;48.776;9.204;2023-03-01T14:22:46;30.60;;;18.13;;
49502;SDS011;35409;48.776;9.204;2023-03-01T14:25:23;27.25;;;18.42;;
49502;SDS011;35409;48.776;9.204;2023-03-01T14:30:35;28.42;;;17.70;;
49502;SDS011;35409;48.776;9.204;2023-03-01T14:33:04;25.73;;;17.60;;
49502;SDS011;35409;48.776;9.204;2023-03-01T14:35:32;32.53;;;18.95;;
49502;SDS011;35409;48.776;9.204;2023-03-01T14:37:58;29.15;;;19.30;;
49502;SDS011;35409;48.776;9.204;2023-03-01T14:40:28;31.80;;;18.60;;
49502;SDS011;35409;48.776;9.204;2023-03-01T14:42:56;29.80;;;18.77;;
49502;SDS011;35409;48.776;9.204;2023-03-01T14:45:25;30.17;;;19.45;;
49502;SDS011;35409;48.776;9.204;2023-03-01T14:47:51;26.48;;;18.23;;
49502;SDS011;35409;48.776;9.204;2023-03-01T14:50:28;28.08;;;18.08;;
49502;SDS011;35409;48.776;9.204;2023-03-01T14:52:55;27.98;;;18.17;;
49502;SDS011;35409;48.776;9.204;2023-03-01T14:55:27;28.20;;;17.23;;
49502;SDS011;35409;48.776;9.204;2023-03-01T14:57:54;25.60;;;17.63;;
49502;SDS011;35409;48.776;9.204;2023-03-01T15:00:23;27.88;;;17.80;;
49502;SDS011;35409;48.776;9.204;2023-03-01T15:02:50;31.95;;;19.50;;
49502;SDS011;35409;48.776;9.204;2023-03-01T15:05:18;28.55;;;18.38;;
49502;SDS011;35409;48.776;9.204;2023-03-01T15:07:44;32.58;;;19.02;;
49502;SDS011;35409;48.776;9.204;2023-03-01T15:10:19;29.38;;;19.05;;
49502;SDS011;35409;48.776;9.204;2023-03-01T15:12:45;29.58;;;18.50;;
49502;SDS011;35409;48.776;9.204;2023-03-01T15:17:57;30.08;;;18.58;;
49502;SDS011;35409;48.776;9.204;2023-03-01T15:20:24;30.00;;;18.83;;
49502;SDS011;35409;48.776;9.204;2023-03-01T15:22:52;30.48;;;18.90;;
49502;SDS011;35409;48.776;9.204;2023-03-01T15:25:20;31.95;;;19.10;;
49502;SDS011;35409;48.776;9.204;2023-03-01T15:27:47;30.83;;;19.40;;
49502;SDS011;35409;48.776;9.204;2023-03-01T15:30:17;31.38;;;19.50;;
49502;SDS011;35409;48.776;9.204;2023-03-01T15:32:44;30.90;;;19.67;;
49502;SDS011;35409;48.776;9.204;2023-03-01T15:37:55;28.75;;;18.98;;
49502;SDS011;35409;48.776;9.204;2023-03-01T15:42:59;30.75;;;18.48;;
49502;SDS011;35409;48.776;9.204;2023-03-01T15:45:26;28.00;;;17.38;;
49502;SDS011;35409;48.776;9.204;2023-03-01T15:47:54;30.27;;;17.98;;
49502;SDS011;35409;48.776;9.204;2023-03-01T15:50:36;27.80;;;17.45;;
49502;SDS011;35409;48.776;9.204;2023-03-01T15:53:06;27.75;;;18.55;;
49502;SDS011;35409;48.776;9.204;2023-03-01T15:55:33;27.60;;;17.92;;
49502;SDS011;35409;48.776;9.204;2023-03-01T15:58:03;33.58;;;18.00;;
49502;SDS011;35409;48.776;9.204;2023-03-01T16:00:31;29.67;;;18.27;;
49502;SDS011;35409;48.776;9.204;2023-03-01T16:02:57;30.85;;;18.23;;
49502;SDS011;35409;48.776;9.204;2023-03-01T16:05:25;30.02;;;18.40;;
49502;SDS011;35409;48.776;9.204;2023-03-01T16:07:51;28.52;;;18.33;;
49502;SDS011;35409;48.776;9.204;2023-03-01T16:10:18;28.80;;;17.60;;
49502;SDS011;35409;48.776;9.204;2023-03-01T16:12:44;37.70;;;18.45;;
49502;SDS011;35409;48.776;9.204;2023-03-01T16:15:18;29.70;;;17.88;;
49502;SDS011;35409;48.776;9.204;2023-03-01T16:17:55;30.45;;;17.02;;
49502;SDS011;35409;48.776;9.204;2023-03-01T16:20:23;29.50;;;18.45;;
49502;SDS011;35409;48.776;9.204;2023-03-01T16:22:49;34.67;;;18.30;;
49502;SDS011;35409;48.776;9.204;2023-03-01T16:25:16;30.55;;;18.10;;